Bell Island, Canada
Current Conditions -  °F | °C
As of 3:00 PM on Sunday 21 Dec 2014 (Local Time) from CYYT Reporting Station
Overcast Overcast  
Wind Chill: 17°   Ceiling: 1700
Heat Index: 27°   Visibility: 15mi
Dew Point: 21°   Wind: 10mph
Humidity: 80%   Direction: 340°NNW
Pressure: 30.23"   Gusts: NA
Location:  47.65°N, 52.93°W
Report Text: CYYT 211800Z 34009KT 15SM OVC017 M03/M06 A3023 RMK SC8 SLP246
Loading
Personal Weather Stations






























Interactive Weather Map New forecast layout! Learn more

10-Day Weather Forecast

Advertisements
Track Severe Weather on mobile